Bookmark and Share
Track history (hours):
 

Callsign AMOUK35 (name unknown)

Last reported at 2014-Apr-23 10:00 UTC. Time now 2014-Apr-24 09:15 UTC.
Position N 56°24' W 005°30'.

Barometer 1012.0 mb
Air temperature 13.3 ° C
Dewpoint 8.0 ° C

NotesDate/timePositionNaut miles runAvg speedWind from/ knotsBaromVisibWave heightAir tempDewpointWater temp
2014-Apr-23 10:00N 56°24' W 005°30'0 0.0 1012.0 13.3 8.0
2014-Apr-22 23:00N 56°24' W 005°30'0 0.0 1009.0 10.8 7.8
2014-Apr-22 20:00N 56°24' W 005°30'0 0.0 1008.8 12.1 8.0
2014-Apr-22 19:00N 56°24' W 005°30'0 0.0 1008.4 12.1 7.9
2014-Apr-22 17:00N 56°24' W 005°30'9 8.9 1008.7 13.4 8.0
2014-Apr-22 16:00N 56°30' W 005°42'1211.6 1008.5 14.7 7.3
2014-Apr-22 15:00N 56°36' W 006°00'9 8.9 1009.1 13.8 7.6
2014-Apr-22 14:00N 56°42' W 006°12'7 6.8 1009.6 12.2 7.4
2014-Apr-22 13:00N 56°48' W 006°06'0 0.0 1010.8 12.6 7.5
2014-Apr-22 12:00N 56°48' W 006°06'9 8.9 1011.0 12.7 6.6
2014-Apr-22 11:00N 56°54' W 006°18'9 8.9 1011.4 11.5 6.5
2014-Apr-22 10:00N 57°00' W 006°30'3 3.3 1011.5 11.5 5.9
2014-Apr-22 09:00N 57°00' W 006°36'7 6.5 1012.3 10.7 5.1
2014-Apr-22 08:00N 57°00' W 006°24'1212.4 1012.3 10.7 5.0
2014-Apr-22 07:00N 57°12' W 006°18'0 0.0 1012.0 14.8 3.6
2014-Apr-22 06:00N 57°12' W 006°18'0 0.0 1012.0 14.7 2.9
2014-Apr-22 05:00N 57°12' W 006°18'0 0.0 1012.3 14.5 2.9
2014-Apr-22 04:00N 57°12' W 006°18'0 0.0 1013.0 14.4 2.9
2014-Apr-22 03:00N 57°12' W 006°18'0 0.0 1012.9 15.3 2.2
2014-Apr-22 02:00N 57°12' W 006°18'0 0.0 1013.5 14.7 2.7
2014-Apr-22 01:00N 57°12' W 006°18'0 0.0 1013.8 14.2 4.4
2014-Apr-22 00:00N 57°12' W 006°18'0 0.0 1013.6 15.7 4.8
2014-Apr-21 23:00N 57°12' W 006°18'0 0.0 1013.5 16.2 5.6
2014-Apr-21 22:00N 57°12' W 006°18'0 0.0 1013.3 16.0 5.5
2014-Apr-21 21:00N 57°12' W 006°18'0 0.0 1013.3 17.0 5.3
2014-Apr-21 20:00N 57°12' W 006°18'0 0.0 1013.3 17.3 5.8
2014-Apr-21 19:00N 57°12' W 006°18'0 0.0 1013.1 17.5 5.6
2014-Apr-21 18:00N 57°12' W 006°18'0 0.0 1013.0 18.2 5.1
2014-Apr-21 17:00N 57°12' W 006°18'0 0.0 1012.7 18.6 5.4
2014-Apr-21 16:00N 57°12' W 006°18'0 0.0 1012.8 18.9 6.0
2014-Apr-21 15:00N 57°12' W 006°18'1212.4 1012.5 19.0 6.3
2014-Apr-21 14:00N 57°00' W 006°12'0 0.0 1012.8 13.6 7.5
2014-Apr-21 13:00N 57°00' W 006°12'1111.5 1012.9 14.6 7.3
2014-Apr-21 12:00N 57°06' W 005°54'9 8.9 1013.4 13.6 6.6
2014-Apr-21 11:00N 57°12' W 005°42'7 6.8 1014.4 14.6 6.6
2014-Apr-21 10:00N 57°18' W 005°48'0 0.0 1014.7 13.6 6.0
2014-Apr-21 09:00N 57°18' W 005°48'3 3.2 1014.5 12.1 5.5
2014-Apr-21 08:00N 57°18' W 005°54'0 0.0 1015.6 10.4 5.0
2014-Apr-21 07:00N 57°18' W 005°54'0 0.0 1015.4 10.0 4.4
2014-Apr-21 06:00N 57°18' W 005°54'0 0.0 1015.7 9.1 4.0
2014-Apr-21 05:00N 57°18' W 005°54'0 0.0 1015.4 8.8 4.0
2014-Apr-21 04:00N 57°18' W 005°54'0 0.0 1015.4 9.0 3.8
2014-Apr-21 03:00N 57°18' W 005°54'0 0.0 1015.6 8.3 4.1
2014-Apr-21 02:00N 57°18' W 005°54'0 0.0 1015.4 8.7 4.1
2014-Apr-21 01:00N 57°18' W 005°54'0 0.0 1015.8 8.8 4.1
2014-Apr-21 00:00N 57°18' W 005°54'0 0.0 1016.1 8.3 4.1
2014-Apr-20 23:00N 57°18' W 005°54'0 0.0 1016.4 8.7 4.3
2014-Apr-20 22:00N 57°18' W 005°54'0 0.0 1016.2 8.7 4.1
2014-Apr-20 21:00N 57°18' W 005°54'0 0.0 1016.4 9.0 4.1
2014-Apr-20 20:00N 57°18' W 005°54'0 0.0 1016.1 10.0 2.6
2014-Apr-20 19:00N 57°18' W 005°54'3 3.2 1015.9 10.8 3.1
2014-Apr-20 18:00N 57°18' W 005°48'10 9.7 1015.4 9.8 5.5
2014-Apr-20 17:00N 57°18' W 005°30'3 3.2 1015.4 13.0 4.6
2014-Apr-20 16:00N 57°18' W 005°36'0 0.0 1015.7 11.7 4.7
2014-Apr-20 15:00N 57°18' W 005°36'3 3.2 1016.0 13.6 4.9
2014-Apr-20 14:00N 57°18' W 005°42'3 3.2 1016.7 15.1 4.3
2014-Apr-20 13:00N 57°18' W 005°48'0 0.0 1016.9 12.4 6.9
2014-Apr-20 12:00N 57°18' W 005°48'3 3.2 1017.2 11.9 5.9
2014-Apr-20 11:00N 57°18' W 005°54'6 6.5 1017.5 10.1 3.8
2014-Apr-20 10:00N 57°18' W 006°06'0 0.0 1017.8 9.5 4.3
2014-Apr-20 09:00N 57°18' W 006°06'9 8.8 1018.1 9.6 5.1
2014-Apr-20 08:00N 57°12' W 005°54'6 6.0 1018.4 8.3 4.4
2014-Apr-20 07:00N 57°18' W 005°54'0 0.0 1018.7 8.3 4.9
2014-Apr-20 06:00N 57°18' W 005°54'0 0.0 1018.8 5.8 3.5
2014-Apr-20 05:00N 57°18' W 005°54'0 0.0 1018.7 4.8 2.6
2014-Apr-20 04:00N 57°18' W 005°54'0 0.0 1018.8 4.9 2.6
2014-Apr-20 03:00N 57°18' W 005°54'0 0.0 1018.9 4.9 2.4
2014-Apr-20 02:00N 57°18' W 005°54'0 0.0 1019.0 5.1 2.5
2014-Apr-20 01:00N 57°18' W 005°54'0 0.0 1019.2 5.1 2.9
2014-Apr-20 00:00N 57°18' W 005°54'0 0.0 1019.3 5.5 3.2
2014-Apr-19 23:00N 57°18' W 005°54'0 0.0 1019.3 6.6 3.6
2014-Apr-19 22:00N 57°18' W 005°54'0 0.0 1019.3 7.6 4.7
2014-Apr-19 21:00N 57°18' W 005°54'0 0.0 1019.2 8.0 4.9
2014-Apr-19 20:00N 57°18' W 005°54'0 0.0 1019.1 9.1 4.8
2014-Apr-19 19:00N 57°18' W 005°54'0 0.0 1019.0 9.3 5.5
2014-Apr-19 18:00N 57°18' W 005°54'0 0.0 1018.9 9.9 6.2
2014-Apr-19 17:00N 57°18' W 005°54'3 3.2 1018.9 10.5 4.5
2014-Apr-19 16:00N 57°18' W 005°48'3 3.2 1018.6 13.4-0.7
2014-Apr-19 15:00N 57°18' W 005°42'9 8.8 1018.9 14.1-1.8
2014-Apr-19 14:00N 57°24' W 005°54'1212.0 1019.5 12.2 3.9
2014-Apr-19 13:00N 57°36' W 005°54'3 3.2 1019.4 11.7 1.9
2014-Apr-19 12:00N 57°36' W 006°00'0 0.0 1019.7 11.0 2.6
2014-Apr-19 11:00N 57°36' W 006°00'6 6.0 1019.6 10.4 2.5
2014-Apr-19 10:00N 57°30' W 006°00'9 8.8 1019.5 10.2 3.6
2014-Apr-19 09:00N 57°24' W 006°12'0 0.0 1019.4 12.5 3.3
2014-Apr-19 08:00N 57°24' W 006°12'0 0.0 1019.1 10.9 2.9
2014-Apr-19 07:00N 57°24' W 006°12'0 0.0 1019.3 8.9 3.6
2014-Apr-19 06:00N 57°24' W 006°12'0 0.0 1019.2 8.4 3.1
2014-Apr-19 05:00N 57°24' W 006°12'0 0.0 1019.2 9.1 2.6
2014-Apr-19 04:00N 57°24' W 006°12'0 0.0 1019.3 8.7 2.7
2014-Apr-19 03:00N 57°24' W 006°12'0 0.0 1019.5 9.0 2.2
2014-Apr-19 02:00N 57°24' W 006°12'0 0.0 1019.9 9.2 2.7
2014-Apr-19 01:00N 57°24' W 006°12'0 0.0 1019.9 8.8 2.8
2014-Apr-19 00:00N 57°24' W 006°12'0 0.0 1020.1 9.2 2.9
2014-Apr-18 23:00N 57°24' W 006°12'0 0.0 1020.0 9.2 3.4
2014-Apr-18 22:00N 57°24' W 006°12'0 0.0 1019.9 8.7 3.2
2014-Apr-18 20:00N 57°24' W 006°12'0 0.0 1019.9 8.9 3.5
2014-Apr-18 19:00N 57°24' W 006°12'0 0.0 1020.0 9.4 4.3
2014-Apr-18 18:00N 57°24' W 006°12'7 6.8 1020.3 9.8 4.4
2014-Apr-18 17:00N 57°30' W 006°06'6 6.0 1019.6 9.9 3.3
2014-Apr-18 16:00N 57°36' W 006°06'1111.3 1020.0 9.6 4.4
2014-Apr-18 15:00N 57°42' W 006°24'3 3.2 1020.7 9.0 5.3
2014-Apr-18 14:00N 57°42' W 006°18'9 8.8 1020.4 9.1 5.2
2014-Apr-18 13:00N 57°48' W 006°30'0 0.0 1020.4 8.7 5.1
2014-Apr-18 12:00N 57°48' W 006°30'7 6.8 1021.0 8.8 5.0
2014-Apr-18 11:00N 57°42' W 006°36'7 6.8 1020.9 8.6 4.6
2014-Apr-18 10:00N 57°36' W 006°42'1212.4 1020.9 9.9 4.8
2014-Apr-18 09:00N 57°24' W 006°36'6 3.0 1021.1 8.2 4.0
2014-Apr-18 07:00N 57°30' W 006°36'6 6.4 1021.1 5.6 2.3
2014-Apr-18 06:00N 57°30' W 006°48'7 6.8 1021.2 7.5 3.3
2014-Apr-18 05:00N 57°24' W 006°54'7 6.8 1021.4 7.3 2.4
2014-Apr-18 04:00N 57°18' W 006°48'6 6.0 1021.4 6.7 0.5
2014-Apr-18 03:00N 57°12' W 006°48'7 6.8 1022.2 6.8 0.2
2014-Apr-18 02:00N 57°06' W 006°42'6 6.0 1022.6 6.8 0.1
2014-Apr-18 01:00N 57°00' W 006°42'7 6.8 1022.6 6.9 0.2
2014-Apr-18 00:00N 56°54' W 006°36'9 8.9 1022.4 6.9 1.0
2014-Apr-17 23:00N 56°48' W 006°24'7 6.8 1022.3 7.3 0.9
2014-Apr-17 22:00N 56°42' W 006°18'3 3.3 1021.9 7.3 2.0
2014-Apr-17 21:00N 56°42' W 006°12'9 8.9 1021.3 7.3 0.9
2014-Apr-17 20:00N 56°36' W 006°00'9 8.9 1020.3 7.2 0.8
2014-Apr-17 19:00N 56°30' W 005°48'9 8.9 1019.4 7.8 0.7
2014-Apr-17 18:00N 56°24' W 005°36'3 3.3 1018.1 8.7 2.6
2014-Apr-17 17:00N 56°24' W 005°30'0 0.0 1017.9 9.2 1.1
2014-Apr-17 14:00N 56°24' W 005°30'0 0.0 1016.6 9.0 2.6
2014-Apr-17 13:00N 56°24' W 005°30'0 0.0 1015.4 8.9 2.5
2014-Apr-17 12:00N 56°24' W 005°30'0 0.0 1015.1 8.6 2.6
2014-Apr-17 11:00N 56°24' W 005°30'0 0.0 1014.8 8.7 3.2
2014-Apr-17 10:00N 56°24' W 005°30'0 0.0 1013.6 8.6 2.8
2014-Apr-17 09:00N 56°24' W 005°30'0 0.0 1012.9 9.3 4.0
2014-Apr-17 08:00N 56°24' W 005°30'0 0.0 1012.6 8.4 6.1
2014-Apr-17 07:00N 56°24' W 005°30'0 0.0 1013.0 8.7 5.4
2014-Apr-17 06:00N 56°24' W 005°30'0 0.0 1013.4 8.1 5.5
2014-Apr-17 01:00N 56°24' W 005°30'0 0.0 1014.3 8.8 7.3
2014-Apr-17 00:00N 56°24' W 005°30'0 0.0 1014.6 9.3 7.8
2014-Apr-16 23:00N 56°24' W 005°30'0 0.0 1015.2 9.3 7.7
2014-Apr-16 18:00N 56°24' W 005°30'0 0.0 1017.5 9.8 6.9
2014-Apr-16 17:00N 56°24' W 005°30'0 0.0 1017.9 10.7 6.1
2014-Apr-16 16:00N 56°24' W 005°30'0 0.0 1018.8 11.7 5.5
2014-Apr-16 13:00N 56°24' W 005°30'0 0.0 1021.2 11.4 4.4
2014-Apr-16 12:00N 56°24' W 005°30'0 0.0 1021.2 12.8 4.3
2014-Apr-16 11:00N 56°24' W 005°30'0 0.0 1021.4 12.3 4.2
2014-Apr-16 10:00N 56°24' W 005°30'0 0.0 1021.2 12.8 3.2
2014-Apr-16 09:00N 56°24' W 005°30'0 0.0 1021.4 12.3 3.6
2014-Apr-16 08:00N 56°24' W 005°30'0 0.0 1022.0 10.5 3.5
2014-Apr-16 07:00N 56°24' W 005°30'0 0.0 1022.1 10.2 3.0
2014-Apr-16 06:00N 56°24' W 005°30'0 0.0 1022.4 9.0 2.8
2014-Apr-16 05:00N 56°24' W 005°30'0 0.0 1022.5 9.3 3.0
2014-Apr-16 04:00N 56°24' W 005°30'0 0.0 1022.9 9.5 4.0
2014-Apr-16 03:00N 56°24' W 005°30'0 0.0 1023.4 9.2 4.0
2014-Apr-16 02:00N 56°24' W 005°30'0 0.0 1023.7 10.2 4.4
2014-Apr-16 01:00N 56°24' W 005°30'0 0.0 1023.8 10.5 4.8
2014-Apr-16 00:00N 56°24' W 005°30'0 0.0 1023.9 11.3 5.4
2014-Apr-15 23:00N 56°24' W 005°30'0 0.0 1024.4 10.0 5.1
2014-Apr-15 22:00N 56°24' W 005°30'0 0.0 1024.3 10.6 4.3
2014-Apr-15 21:00N 56°24' W 005°30'0 0.0 1024.3 10.3 4.0
2014-Apr-15 20:00N 56°24' W 005°30'0 0.0 1024.3 10.8 3.8
2014-Apr-15 19:00N 56°24' W 005°30'0 0.0 1024.4 12.1 3.5
2014-Apr-15 18:00N 56°24' W 005°30'0 0.0 1024.4 12.6 4.6
2014-Apr-15 17:00N 56°24' W 005°30'0 0.0 1024.6 14.4 4.9
2014-Apr-15 16:00N 56°24' W 005°30'0 0.0 1025.0 13.1 4.2
2014-Apr-15 15:00N 56°24' W 005°30'0 0.0 1025.9 14.0 4.6
2014-Apr-15 14:00N 56°24' W 005°30'0 0.0 1026.8 12.2 4.4
2014-Apr-15 13:00N 56°24' W 005°30'0 0.0 1027.5 11.5 4.6
2014-Apr-15 12:00N 56°24' W 005°30'0 0.0 1028.2 10.5 4.4
2014-Apr-15 09:00N 56°24' W 005°30'6 6.0 1028.8 8.1 4.3
2014-Apr-15 08:00N 56°30' W 005°30'0 0.0 1028.9 8.7 3.9
2014-Apr-15 07:00N 56°30' W 005°30'0 0.0 1028.8 6.5 4.1
2014-Apr-15 06:00N 56°30' W 005°30'0 0.0 1028.6 5.7 2.5
2014-Apr-15 05:00N 56°30' W 005°30'0 0.0 1028.6 5.3 2.3
2014-Apr-15 04:00N 56°30' W 005°30'0 0.0 1028.2 5.7 3.7
2014-Apr-15 03:00N 56°30' W 005°30'0 0.0 1028.2 5.5 2.6
2014-Apr-15 02:00N 56°30' W 005°30'0 0.0 1028.6 5.7 3.6
2014-Apr-15 01:00N 56°30' W 005°30'0 0.0 1028.9 5.5 3.2
2014-Apr-15 00:00N 56°30' W 005°30'0 0.0 1029.2 5.9 3.7
2014-Apr-14 23:00N 56°30' W 005°30'0 0.0 1028.9 6.7 4.3
2014-Apr-14 22:00N 56°30' W 005°30'0 0.0 1028.8 7.8 4.2
2014-Apr-14 21:00N 56°30' W 005°30'0 0.0 1028.2 8.3 3.8
2014-Apr-14 20:00N 56°30' W 005°30'0 0.0 1028.3 8.9 4.3
2014-Apr-14 19:00N 56°30' W 005°30'0 0.0 1028.0 9.4 3.8
2014-Apr-14 18:00N 56°30' W 005°30'0 0.0 1027.8 10.8 3.5
2014-Apr-14 17:00N 56°30' W 005°30'0 0.0 1027.4 11.5 3.2
2014-Apr-14 16:00N 56°30' W 005°30'0 0.0 1027.1 11.5 3.4
2014-Apr-14 15:00N 56°30' W 005°30'0 0.0 1027.1 10.9 2.7
2014-Apr-14 14:00N 56°30' W 005°30'0 0.0 1027.0 11.7 2.3
2014-Apr-14 13:00N 56°30' W 005°30'6 6.0 1026.7 10.5 0.9
2014-Apr-14 12:00N 56°24' W 005°30'0 0.0 1026.4 9.5 3.4
2014-Apr-14 11:00N 56°24' W 005°30'0 0.0 1025.8 9.1 3.2
2014-Apr-14 10:00N 56°24' W 005°30'0 0.0 1025.4 8.9 2.6
2014-Apr-14 09:00N 56°24' W 005°30'0 0.0 1024.5 8.2 4.6
2014-Apr-14 08:00N 56°24' W 005°30'0 0.0 1023.8 7.9 4.5
2014-Apr-14 02:00N 56°24' W 005°30'0 0.0 1020.2 7.8 4.7
2014-Apr-13 21:00N 56°24' W 005°30'0 0.0 1016.4 8.5 4.4
2014-Apr-13 20:00N 56°24' W 005°30'0 0.0 1016.1 8.3 4.6
2014-Apr-13 19:00N 56°24' W 005°30'0 0.0 1015.3 8.4 4.3
2014-Apr-13 18:00N 56°24' W 005°30'0 0.0 1014.3 8.4 4.2
2014-Apr-13 15:00N 56°24' W 005°30'0 0.0 1012.9 9.3 4.9
2014-Apr-13 13:00N 56°24' W 005°30'0 0.0 1014.3 8.4 6.4
2014-Apr-13 12:00N 56°24' W 005°30'0 0.0 1015.2 8.4 5.7
2014-Apr-13 11:00N 56°24' W 005°30'0 0.0 1016.0 8.8 4.7
2014-Apr-13 10:00N 56°24' W 005°30'   1016.4 8.1 5.4

Dump ship's entire track history

sailing weather and tide predictions

Ship Status Report: callsign AMOUK35